Accueil
METAR-TAF:

METAR-TAF

Aéroports :

Londres-Stansted, Angleterre

Aéroport de Londres-Stansted

latitude: 51-53N, longitude: 000-14E, altitude: 106 m

Observation

Le bulletin a été fait il y a 13 minutes, à 12:20 UTC
Vent 14 kt de est
Température 3°C
Humidité 65%
Pression 1022 hPa
Visibilité 10 km ou plus
Ciel couvert à une hauteur de 2900 ft

METAR: EGSS 231220Z AUTO 08014KT 9999 OVC029 03/M03 Q1022

Heure: 12:33 (12:33 UTC)

Prévision

Le bulletin a été fait il y a 1 heure et 35 minutes, à 10:58 UTC
Prévision valable du 23 à 12 UTC au 24 à 18 UTC
Vent 10 kt de est
Visibilité 10 km ou plus
Nuages épars à une hauteur de 3000 ft
Probabilité 40% :
Temporairement
du 24 à 00 UTC au 24 à 09 UTC
Visibilité: 8000 m

TAF: EGSS 231058Z 2312/2418 08010KT 9999 SCT030 PROB40 TEMPO 2400/2409 8000

Observations et prévisions météorologiques de plus de 4000 aéroports (messages METAR et TAF).

Les stations disponibles sont représentées par des disques jaunes et rouges sur la carte.

Passer la souris dessus pour voir le nom de la station.

Cliquer dessus pour voir les observations et prévisions météorologiques.

Pour changer de carte: cliquez sur les boutons verts avec une croix noire pour zoomer, sur le bouton vert avec un tiret pour effectuer un zoom arrière, ou sur les flèches vertes pour les cartes adjacentes.


METAR-TAF: